Time;durP1;ratioP1;P1;durP2;ratioP2;P2;SDS_P1;SDS_P2;PMS_P1;PMS_P2;Temp;Humidity;BMP_temperature;BMP_pressure;BME280_temperature;BME280_humidity;BME280_pressure;Samples;Min_cycle;Max_cycle;Signal;HPM_P1;HPM_P2
2021/03/16 00:01:04;;;;;;;10.82;5.18;;;;;;;;;;5093855;28;20205;-62
2021/03/16 00:03:31;;;;;;;11.75;4.28;;;;;;;;;;5094008;28;20224;-61
2021/03/16 00:05:58;;;;;;;7.63;4.45;;;;;;;;;;5093839;28;20200;-61
2021/03/16 00:08:25;;;;;;;12.07;4.47;;;;;;;;;;5093716;28;20204;-61
2021/03/16 00:10:52;;;;;;;6.43;4.10;;;;;;;;;;5093547;28;20207;-61
2021/03/16 00:13:19;;;;;;;12.05;4.75;;;;;;;;;;5093149;28;20204;-62
2021/03/16 00:15:46;;;;;;;9.70;4.40;;;;;;;;;;5093752;28;20200;-61
2021/03/16 00:18:15;;;;;;;9.23;4.47;;;;;;;;;;5093860;28;20196;-61
2021/03/16 00:20:42;;;;;;;11.65;4.55;;;;;;;;;;5093470;28;20291;-61
2021/03/16 00:23:08;;;;;;;11.55;4.35;;;;;;;;;;5094995;28;20265;-62
2021/03/16 00:25:35;;;;;;;9.85;4.65;;;;;;;;;;5097302;28;20230;-62
2021/03/16 00:28:02;;;;;;;10.35;5.00;;;;;;;;;;5097455;28;20216;-61
2021/03/16 00:30:29;;;;;;;13.82;4.95;;;;;;;;;;5097400;28;20200;-62
2021/03/16 00:32:56;;;;;;;14.02;5.07;;;;;;;;;;5097094;28;20683;-62
2021/03/16 00:35:23;;;;;;;9.25;4.30;;;;;;;;;;5097105;28;20224;-61
2021/03/16 00:37:50;;;;;;;11.18;5.72;;;;;;;;;;5097148;28;20665;-61
2021/03/16 00:40:17;;;;;;;16.65;4.90;;;;;;;;;;5097049;28;20207;-61
2021/03/16 00:42:44;;;;;;;11.38;4.28;;;;;;;;;;5097358;28;20204;-61
2021/03/16 00:45:11;;;;;;;11.75;6.90;;;;;;;;;;5097128;28;20746;-61
2021/03/16 00:47:38;;;;;;;10.15;5.90;;;;;;;;;;5097313;28;20200;-61
2021/03/16 00:50:05;;;;;;;11.07;4.95;;;;;;;;;;5096801;28;20196;-61
2021/03/16 00:52:33;;;;;;;8.05;4.63;;;;;;;;;;5097007;28;20204;-61
2021/03/16 00:55:00;;;;;;;9.48;4.47;;;;;;;;;;5096779;28;20216;-61
2021/03/16 00:57:27;;;;;;;9.52;4.50;;;;;;;;;;5096967;28;20201;-61
2021/03/16 00:59:53;;;;;;;12.52;4.70;;;;;;;;;;5096884;28;20200;-62
2021/03/16 01:02:20;;;;;;;11.45;4.90;;;;;;;;;;5096897;28;20208;-61
2021/03/16 01:04:47;;;;;;;12.27;5.28;;;;;;;;;;5098770;28;20269;-63
2021/03/16 01:07:14;;;;;;;11.80;4.60;;;;;;;;;;5096485;28;20276;-62
2021/03/16 01:09:42;;;;;;;9.55;4.07;;;;;;;;;;5097206;28;20223;-62
2021/03/16 01:12:09;;;;;;;6.93;3.40;;;;;;;;;;5096946;28;20608;-62
2021/03/16 01:14:35;;;;;;;18.50;4.20;;;;;;;;;;5096758;28;20220;-62
2021/03/16 01:17:02;;;;;;;14.07;4.55;;;;;;;;;;5096467;28;20668;-62
2021/03/16 01:19:29;;;;;;;13.20;4.50;;;;;;;;;;5096464;28;20668;-61
2021/03/16 01:21:56;;;;;;;6.15;2.90;;;;;;;;;;5096634;28;20273;-61
2021/03/16 01:24:22;;;;;;;12.73;3.40;;;;;;;;;;5096419;28;20220;-61
2021/03/16 01:26:50;;;;;;;14.68;3.78;;;;;;;;;;5096608;28;20201;-61
2021/03/16 01:29:17;;;;;;;11.05;2.88;;;;;;;;;;5097238;28;20250;-61
2021/03/16 01:31:44;;;;;;;9.45;3.58;;;;;;;;;;5096383;28;20261;-61
2021/03/16 01:34:10;;;;;;;15.23;3.72;;;;;;;;;;5095877;28;20221;-62
2021/03/16 01:36:37;;;;;;;12.18;3.08;;;;;;;;;;5096042;28;20200;-61
2021/03/16 01:39:04;;;;;;;8.77;3.20;;;;;;;;;;5095909;28;20207;-62
2021/03/16 01:41:31;;;;;;;11.82;3.33;;;;;;;;;;5095840;28;20230;-61
2021/03/16 01:43:58;;;;;;;10.60;2.38;;;;;;;;;;5095608;28;20228;-62
2021/03/16 01:46:25;;;;;;;9.02;3.13;;;;;;;;;;5096073;28;20200;-62
2021/03/16 01:48:52;;;;;;;10.93;3.13;;;;;;;;;;5096661;28;20224;-62
2021/03/16 01:51:19;;;;;;;10.38;3.45;;;;;;;;;;5095904;28;20302;-61
2021/03/16 01:53:46;;;;;;;12.23;2.80;;;;;;;;;;5095969;28;20232;-61
2021/03/16 01:56:14;;;;;;;14.82;4.88;;;;;;;;;;5101699;28;20224;-62
2021/03/16 01:58:42;;;;;;;13.85;3.67;;;;;;;;;;5112191;28;20200;-62
2021/03/16 02:01:09;;;;;;;16.48;3.55;;;;;;;;;;5100116;28;20661;-62
2021/03/16 02:03:36;;;;;;;9.55;3.38;;;;;;;;;;5100049;28;20224;-61
2021/03/16 02:06:04;;;;;;;9.00;3.58;;;;;;;;;;5095826;28;20231;-61
2021/03/16 02:08:39;;;;;;;9.65;2.95;;;;;;;;;;5095809;28;20208;-61
2021/03/16 02:11:08;;;;;;;10.88;3.13;;;;;;;;;;5096599;28;20709;-62
2021/03/16 02:13:39;;;;;;;8.57;2.72;;;;;;;;;;5095333;28;20732;-62
2021/03/16 02:16:10;;;;;;;14.52;3.95;;;;;;;;;;5095692;28;20184;-62
2021/03/16 02:18:41;;;;;;;10.68;3.70;;;;;;;;;;5095543;28;20188;-61
2021/03/16 02:21:13;;;;;;;11.75;4.45;;;;;;;;;;5095607;28;20187;-62
2021/03/16 02:23:54;;;;;;;10.90;4.00;;;;;;;;;;5095250;28;20228;-61
2021/03/16 02:26:24;;;;;;;10.60;3.58;;;;;;;;;;5092422;28;20204;-61
2021/03/16 02:29:05;;;;;;;11.98;2.95;;;;;;;;;;5095369;28;20227;-62
2021/03/16 02:31:34;;;;;;;12.80;2.72;;;;;;;;;;5095348;28;20188;-60
2021/03/16 02:34:03;;;;;;;13.43;3.90;;;;;;;;;;5095393;28;20223;-62
2021/03/16 02:36:30;;;;;;;14.40;4.05;;;;;;;;;;5095429;28;20197;-61
2021/03/16 02:38:57;;;;;;;16.55;2.92;;;;;;;;;;5095261;28;20265;-62
2021/03/16 02:41:24;;;;;;;8.32;3.30;;;;;;;;;;5095265;28;20228;-62
2021/03/16 02:43:51;;;;;;;11.50;3.22;;;;;;;;;;5095127;28;20220;-62
2021/03/16 02:46:19;;;;;;;15.25;3.30;;;;;;;;;;5094042;28;20278;-62
2021/03/16 02:48:47;;;;;;;11.70;3.28;;;;;;;;;;5094523;28;20711;-61
2021/03/16 02:51:14;;;;;;;18.15;3.83;;;;;;;;;;5094480;28;20676;-61
2021/03/16 02:53:42;;;;;;;10.35;3.20;;;;;;;;;;5094432;28;20777;-61
2021/03/16 02:56:09;;;;;;;8.88;3.35;;;;;;;;;;5094917;28;20208;-61
2021/03/16 02:58:36;;;;;;;19.17;5.18;;;;;;;;;;5094822;28;20200;-61
2021/03/16 03:01:04;;;;;;;7.88;2.90;;;;;;;;;;5095488;28;20253;-61
2021/03/16 03:03:32;;;;;;;12.52;4.10;;;;;;;;;;5094235;28;20227;-60
2021/03/16 03:05:59;;;;;;;10.63;4.38;;;;;;;;;;5094036;28;20230;-61
2021/03/16 03:08:26;;;;;;;14.27;5.13;;;;;;;;;;5094218;28;20211;-61
2021/03/16 03:10:53;;;;;;;6.13;3.03;;;;;;;;;;5094519;28;20223;-61
2021/03/16 03:13:20;;;;;;;10.90;3.75;;;;;;;;;;5096813;28;20196;-62
2021/03/16 03:15:46;;;;;;;15.77;4.25;;;;;;;;;;5095978;28;20207;-61
2021/03/16 03:18:13;;;;;;;10.07;3.25;;;;;;;;;;5094714;28;20193;-62
2021/03/16 03:20:41;;;;;;;13.55;3.90;;;;;;;;;;5094433;28;20209;-61
2021/03/16 03:23:11;;;;;;;12.07;3.78;;;;;;;;;;5094518;28;20200;-61
2021/03/16 03:25:39;;;;;;;12.60;4.57;;;;;;;;;;5094826;28;20201;-61
2021/03/16 03:28:09;;;;;;;18.77;3.28;;;;;;;;;;5101153;28;20784;-61
2021/03/16 03:30:37;;;;;;;17.95;4.15;;;;;;;;;;5094660;28;20204;-61
2021/03/16 03:33:05;;;;;;;14.38;3.83;;;;;;;;;;5094576;28;20200;-62
2021/03/16 03:35:32;;;;;;;17.98;4.18;;;;;;;;;;5093910;28;20224;-61
2021/03/16 03:38:01;;;;;;;12.93;3.83;;;;;;;;;;5094116;28;20196;-60
2021/03/16 03:40:28;;;;;;;17.45;4.35;;;;;;;;;;5094081;28;20200;-62
2021/03/16 03:42:57;;;;;;;10.32;3.80;;;;;;;;;;5093837;28;20204;-61
2021/03/16 03:45:25;;;;;;;12.07;4.45;;;;;;;;;;5094081;28;20270;-62
2021/03/16 03:47:53;;;;;;;18.30;4.80;;;;;;;;;;5094181;28;20200;-61
2021/03/16 03:50:19;;;;;;;13.02;5.18;;;;;;;;;;5093645;28;20607;-60
2021/03/16 03:52:47;;;;;;;19.60;4.03;;;;;;;;;;5093626;28;20683;-61
2021/03/16 03:55:15;;;;;;;11.30;4.82;;;;;;;;;;5093585;28;20223;-61
2021/03/16 03:57:43;;;;;;;8.73;3.97;;;;;;;;;;5093388;28;20207;-61
2021/03/16 04:00:12;;;;;;;19.08;5.43;;;;;;;;;;5093748;28;20570;-61
2021/03/16 04:02:40;;;;;;;8.65;4.10;;;;;;;;;;5093650;28;20270;-61
2021/03/16 04:07:52;;;;;;;16.20;5.70;;;;;;;;;;5111987;27;20544;-62
2021/03/16 04:10:19;;;;;;;11.15;6.50;;;;;;;;;;5111098;28;20196;-61
2021/03/16 04:12:45;;;;;;;11.98;5.50;;;;;;;;;;5111022;28;20690;-61
2021/03/16 04:15:13;;;;;;;18.23;6.47;;;;;;;;;;5111325;28;20630;-62
2021/03/16 04:17:41;;;;;;;16.25;5.93;;;;;;;;;;5110945;28;20694;-61
2021/03/16 04:20:08;;;;;;;12.73;7.68;;;;;;;;;;5111116;28;20203;-60
2021/03/16 04:22:36;;;;;;;12.73;6.30;;;;;;;;;;5111122;28;20569;-62
2021/03/16 04:25:04;;;;;;;17.45;6.50;;;;;;;;;;5110798;28;20727;-61
2021/03/16 04:27:30;;;;;;;16.35;6.63;;;;;;;;;;5111029;28;20643;-61
2021/03/16 04:29:57;;;;;;;10.07;6.88;;;;;;;;;;5110820;28;20200;-62
2021/03/16 04:32:24;;;;;;;17.17;6.35;;;;;;;;;;5110730;28;20196;-62
2021/03/16 04:34:51;;;;;;;22.02;8.05;;;;;;;;;;5110847;28;20226;-61
2021/03/16 04:37:18;;;;;;;17.92;7.70;;;;;;;;;;5110647;28;20243;-62
2021/03/16 04:39:44;;;;;;;14.18;7.90;;;;;;;;;;5110874;28;20200;-60
2021/03/16 04:42:12;;;;;;;14.93;6.97;;;;;;;;;;5110475;28;20671;-61
2021/03/16 04:44:39;;;;;;;17.50;7.47;;;;;;;;;;5110382;28;20711;-62
2021/03/16 04:47:06;;;;;;;18.20;7.30;;;;;;;;;;5111376;28;20219;-61
2021/03/16 04:49:32;;;;;;;13.32;7.35;;;;;;;;;;5115582;28;20196;-61
2021/03/16 04:51:59;;;;;;;23.98;7.88;;;;;;;;;;5114939;28;20226;-62
2021/03/16 04:54:26;;;;;;;12.10;6.03;;;;;;;;;;5112665;28;20590;-60
2021/03/16 04:56:53;;;;;;;11.57;5.60;;;;;;;;;;5110532;28;20299;-62
2021/03/16 04:59:21;;;;;;;20.23;6.72;;;;;;;;;;5110546;28;20208;-61
2021/03/16 05:01:47;;;;;;;10.45;5.40;;;;;;;;;;5119755;28;20226;-62
2021/03/16 05:04:14;;;;;;;10.35;6.22;;;;;;;;;;5114463;28;20584;-61
2021/03/16 05:06:41;;;;;;;9.95;5.10;;;;;;;;;;5110781;28;20231;-61
2021/03/16 05:09:07;;;;;;;13.20;5.10;;;;;;;;;;5113800;28;20216;-61
2021/03/16 05:11:35;;;;;;;13.32;6.93;;;;;;;;;;5113823;28;20203;-60
2021/03/16 05:14:02;;;;;;;13.68;4.95;;;;;;;;;;5111433;28;20241;-60
2021/03/16 05:16:31;;;;;;;16.85;7.28;;;;;;;;;;5112272;28;20245;-62
2021/03/16 05:18:57;;;;;;;14.88;5.00;;;;;;;;;;5098526;28;20200;-61
2021/03/16 05:21:24;;;;;;;14.38;5.90;;;;;;;;;;5097061;28;20205;-60
2021/03/16 05:23:51;;;;;;;12.00;5.10;;;;;;;;;;5097328;28;20266;-60
2021/03/16 05:26:18;;;;;;;11.30;5.32;;;;;;;;;;5096562;28;20243;-60
2021/03/16 05:28:44;;;;;;;15.45;5.28;;;;;;;;;;5096434;28;20196;-61
2021/03/16 05:31:11;;;;;;;14.93;5.30;;;;;;;;;;5096275;28;20204;-61
2021/03/16 05:33:39;;;;;;;9.82;5.80;;;;;;;;;;5095899;28;20593;-62
2021/03/16 05:36:06;;;;;;;16.08;5.78;;;;;;;;;;5096072;28;20201;-60
2021/03/16 05:38:33;;;;;;;10.45;4.82;;;;;;;;;;5096089;28;20668;-61
2021/03/16 05:41:00;;;;;;;14.63;5.90;;;;;;;;;;5096042;28;20241;-61
2021/03/16 05:43:27;;;;;;;10.27;4.10;;;;;;;;;;5096122;28;20668;-61
2021/03/16 05:45:56;;;;;;;8.45;4.80;;;;;;;;;;5096230;28;20227;-61
2021/03/16 05:48:23;;;;;;;9.00;4.85;;;;;;;;;;5095989;28;20809;-61
2021/03/16 05:50:51;;;;;;;12.48;5.07;;;;;;;;;;5096483;28;20200;-60
2021/03/16 05:53:18;;;;;;;12.45;4.82;;;;;;;;;;5096388;28;20273;-60
2021/03/16 05:55:46;;;;;;;19.20;5.72;;;;;;;;;;5096306;28;20208;-61
2021/03/16 05:58:13;;;;;;;12.45;4.78;;;;;;;;;;5097167;28;20644;-62
2021/03/16 06:00:39;;;;;;;22.73;6.38;;;;;;;;;;5096057;28;20204;-61
2021/03/16 06:03:06;;;;;;;12.40;5.00;;;;;;;;;;5096231;28;20664;-62
2021/03/16 06:05:33;;;;;;;8.93;4.75;;;;;;;;;;5095444;28;20227;-61
2021/03/16 06:08:01;;;;;;;18.35;5.05;;;;;;;;;;5101056;28;20211;-61
2021/03/16 06:10:27;;;;;;;22.40;5.53;;;;;;;;;;5104619;28;20207;-61
2021/03/16 06:12:54;;;;;;;13.25;4.97;;;;;;;;;;5110970;28;20204;-61
2021/03/16 06:15:22;;;;;;;14.43;4.50;;;;;;;;;;5106086;28;20712;-61
2021/03/16 06:17:51;;;;;;;7.68;3.50;;;;;;;;;;5100216;28;20200;-59
2021/03/16 06:20:26;;;;;;;11.98;4.80;;;;;;;;;;5095623;28;20560;-61
2021/03/16 06:23:03;;;;;;;11.52;4.80;;;;;;;;;;5095393;28;20671;-62
2021/03/16 06:25:30;;;;;;;11.18;4.53;;;;;;;;;;5095262;28;20239;-61
2021/03/16 06:28:04;;;;;;;9.35;3.85;;;;;;;;;;5095183;28;20308;-62
2021/03/16 06:30:31;;;;;;;15.18;5.50;;;;;;;;;;5094426;28;20207;-60
2021/03/16 06:32:58;;;;;;;14.65;4.55;;;;;;;;;;5095382;28;20579;-61
2021/03/16 06:35:25;;;;;;;9.70;4.55;;;;;;;;;;5096619;28;20220;-62
2021/03/16 06:38:09;;;;;;;11.00;4.13;;;;;;;;;;5095282;28;20223;-61
2021/03/16 06:40:36;;;;;;;13.25;3.72;;;;;;;;;;5094811;28;20777;-62
2021/03/16 06:43:04;;;;;;;12.52;4.57;;;;;;;;;;5095234;28;20200;-61
2021/03/16 06:45:31;;;;;;;10.98;4.40;;;;;;;;;;5094658;28;20626;-61
2021/03/16 06:47:57;;;;;;;8.88;4.20;;;;;;;;;;5094417;28;20228;-62
2021/03/16 06:50:28;;;;;;;9.23;4.18;;;;;;;;;;5095072;28;20205;-62
2021/03/16 06:52:57;;;;;;;10.93;4.55;;;;;;;;;;5095195;28;20185;-61
2021/03/16 06:55:24;;;;;;;14.25;4.20;;;;;;;;;;5095982;28;20370;-62
2021/03/16 06:57:51;;;;;;;13.07;3.70;;;;;;;;;;5096514;28;20200;-63
2021/03/16 07:00:18;;;;;;;14.07;4.40;;;;;;;;;;5098796;28;20237;-62
2021/03/16 07:02:45;;;;;;;13.50;3.78;;;;;;;;;;5095652;28;20560;-61
2021/03/16 07:05:13;;;;;;;13.57;4.03;;;;;;;;;;5094544;28;20269;-62
2021/03/16 07:07:40;;;;;;;10.57;4.22;;;;;;;;;;5094904;28;20223;-62
2021/03/16 07:10:07;;;;;;;12.23;3.38;;;;;;;;;;5094718;28;20200;-62
2021/03/16 07:12:35;;;;;;;10.00;4.35;;;;;;;;;;5095480;28;20204;-62
2021/03/16 07:15:03;;;;;;;17.73;5.00;;;;;;;;;;5096538;28;20278;-61
2021/03/16 07:17:30;;;;;;;9.73;3.83;;;;;;;;;;5095389;28;20197;-61
2021/03/16 07:20:01;;;;;;;13.48;4.10;;;;;;;;;;5095246;28;20207;-62
2021/03/16 07:22:28;;;;;;;12.90;4.28;;;;;;;;;;5095447;28;20187;-60
2021/03/16 07:24:55;;;;;;;10.77;4.20;;;;;;;;;;5095513;28;20592;-61
2021/03/16 07:27:22;;;;;;;10.25;3.70;;;;;;;;;;5095343;28;20262;-62
2021/03/16 07:29:50;;;;;;;9.10;3.72;;;;;;;;;;5095012;28;20668;-61
2021/03/16 07:32:17;;;;;;;13.35;4.07;;;;;;;;;;5094489;28;20203;-61
2021/03/16 07:34:44;;;;;;;7.60;3.33;;;;;;;;;;5096375;28;20220;-62
2021/03/16 07:37:11;;;;;;;13.35;3.78;;;;;;;;;;5094036;28;20200;-62
2021/03/16 07:39:39;;;;;;;9.27;3.22;;;;;;;;;;5093973;28;20207;-61
2021/03/16 07:42:07;;;;;;;14.68;3.80;;;;;;;;;;5095566;28;20207;-62
2021/03/16 07:44:41;;;;;;;11.07;3.30;;;;;;;;;;5095370;28;20251;-62
2021/03/16 07:47:09;;;;;;;11.32;3.30;;;;;;;;;;5096169;28;20551;-62
2021/03/16 07:49:36;;;;;;;8.27;3.03;;;;;;;;;;5096560;28;20258;-63
2021/03/16 07:52:05;;;;;;;9.55;3.30;;;;;;;;;;5094023;28;20204;-60
2021/03/16 07:54:36;;;;;;;9.85;2.88;;;;;;;;;;5093368;28;20314;-61
2021/03/16 07:57:04;;;;;;;23.67;3.42;;;;;;;;;;5094229;28;20261;-61
2021/03/16 07:59:31;;;;;;;8.02;3.20;;;;;;;;;;5093840;28;20274;-63
2021/03/16 08:01:58;;;;;;;6.25;2.17;;;;;;;;;;5094186;28;20265;-62
2021/03/16 08:04:34;;;;;;;12.00;3.40;;;;;;;;;;5093857;28;20223;-63
2021/03/16 08:07:02;;;;;;;11.50;3.10;;;;;;;;;;5092778;28;20498;-62
2021/03/16 08:09:28;;;;;;;7.18;2.85;;;;;;;;;;5095792;28;20205;-62
2021/03/16 08:11:55;;;;;;;11.18;2.25;;;;;;;;;;5100584;28;20200;-62
2021/03/16 08:14:25;;;;;;;11.07;3.15;;;;;;;;;;5095144;28;20223;-61
2021/03/16 08:16:51;;;;;;;8.75;2.20;;;;;;;;;;5099427;28;20224;-62
2021/03/16 08:19:19;;;;;;;10.07;1.95;;;;;;;;;;5095000;28;20227;-63
2021/03/16 08:21:54;;;;;;;12.73;2.65;;;;;;;;;;5094131;28;20203;-62
2021/03/16 08:24:21;;;;;;;8.63;2.10;;;;;;;;;;5094937;28;20230;-63
2021/03/16 08:26:49;;;;;;;8.57;2.55;;;;;;;;;;5094522;28;20216;-62
2021/03/16 08:29:16;;;;;;;5.15;1.92;;;;;;;;;;5094177;28;20236;-63
2021/03/16 08:31:43;;;;;;;7.35;2.28;;;;;;;;;;5094038;28;20207;-62
2021/03/16 08:34:10;;;;;;;7.28;2.60;;;;;;;;;;5094235;28;20231;-63
2021/03/16 08:36:41;;;;;;;8.85;2.53;;;;;;;;;;5093870;28;20193;-63
2021/03/16 08:39:09;;;;;;;8.38;2.25;;;;;;;;;;5093503;28;20205;-63
2021/03/16 08:41:36;;;;;;;5.22;1.90;;;;;;;;;;5093933;28;20670;-62
2021/03/16 08:44:02;;;;;;;6.78;1.83;;;;;;;;;;5093775;28;20231;-62
2021/03/16 08:46:30;;;;;;;7.88;2.50;;;;;;;;;;5094985;28;20232;-63
2021/03/16 08:48:57;;;;;;;8.90;2.77;;;;;;;;;;5096622;28;20475;-62
2021/03/16 08:51:24;;;;;;;7.82;1.80;;;;;;;;;;5100180;28;20504;-62
2021/03/16 08:53:51;;;;;;;8.00;1.95;;;;;;;;;;5097350;28;20543;-61
2021/03/16 08:56:22;;;;;;;9.60;2.25;;;;;;;;;;5097573;28;20196;-61
2021/03/16 08:58:49;;;;;;;5.80;2.42;;;;;;;;;;5097918;28;20204;-61
2021/03/16 09:01:26;;;;;;;8.80;1.75;;;;;;;;;;5097584;28;20729;-63
2021/03/16 09:03:53;;;;;;;8.70;2.63;;;;;;;;;;5097344;28;20220;-64
2021/03/16 09:06:20;;;;;;;5.85;2.40;;;;;;;;;;5097301;28;20227;-63
2021/03/16 09:08:50;;;;;;;9.27;2.00;;;;;;;;;;5096871;28;20204;-62
2021/03/16 09:11:28;;;;;;;10.18;2.55;;;;;;;;;;5097630;28;20200;-62
2021/03/16 09:14:05;;;;;;;6.10;2.35;;;;;;;;;;5098198;28;20634;-63
2021/03/16 09:16:33;;;;;;;7.78;2.10;;;;;;;;;;5097726;28;20180;-62
2021/03/16 09:19:00;;;;;;;8.23;2.90;;;;;;;;;;5100745;28;20279;-61
2021/03/16 09:21:27;;;;;;;5.70;2.70;;;;;;;;;;5100893;28;20204;-62
2021/03/16 09:24:02;;;;;;;6.65;2.10;;;;;;;;;;5101227;28;20220;-62
2021/03/16 09:26:30;;;;;;;5.93;2.58;;;;;;;;;;5101321;28;20295;-62
2021/03/16 09:28:56;;;;;;;3.22;2.15;;;;;;;;;;5096256;28;20687;-61
2021/03/16 09:31:24;;;;;;;4.65;2.10;;;;;;;;;;5096987;28;20234;-64
2021/03/16 09:33:51;;;;;;;2.85;1.30;;;;;;;;;;5096676;28;20632;-61
2021/03/16 09:36:27;;;;;;;5.55;1.52;;;;;;;;;;5096958;28;20197;-61
2021/03/16 09:38:54;;;;;;;5.30;1.75;;;;;;;;;;5096921;28;20219;-62
2021/03/16 09:41:21;;;;;;;4.22;1.70;;;;;;;;;;5096969;28;20204;-62
2021/03/16 09:43:49;;;;;;;2.80;1.60;;;;;;;;;;5097201;28;20227;-61
2021/03/16 09:46:16;;;;;;;3.47;1.88;;;;;;;;;;5099577;28;20224;-63
2021/03/16 09:48:46;;;;;;;5.60;1.70;;;;;;;;;;5097255;28;20196;-64
2021/03/16 09:51:14;;;;;;;6.00;1.70;;;;;;;;;;5097135;28;20246;-61
2021/03/16 09:53:46;;;;;;;4.82;1.45;;;;;;;;;;5097334;28;20448;-63
2021/03/16 09:56:13;;;;;;;4.35;1.45;;;;;;;;;;5096628;28;20188;-62
2021/03/16 09:58:47;;;;;;;3.08;1.50;;;;;;;;;;5095876;28;20209;-63
2021/03/16 10:01:15;;;;;;;3.45;1.83;;;;;;;;;;5096547;28;20266;-60
2021/03/16 10:03:41;;;;;;;4.05;1.92;;;;;;;;;;5098371;28;20216;-63
2021/03/16 10:06:09;;;;;;;3.42;1.40;;;;;;;;;;5095662;28;20208;-62
2021/03/16 10:08:36;;;;;;;3.05;1.73;;;;;;;;;;5096047;28;20205;-62
2021/03/16 10:11:04;;;;;;;3.55;1.60;;;;;;;;;;5096011;28;20294;-64
2021/03/16 10:13:31;;;;;;;3.00;1.45;;;;;;;;;;5095574;28;20715;-63
2021/03/16 10:16:06;;;;;;;5.65;1.90;;;;;;;;;;5095452;28;20204;-62
2021/03/16 10:18:38;;;;;;;6.72;1.80;;;;;;;;;;5094601;28;20443;-62
2021/03/16 10:21:05;;;;;;;3.08;1.60;;;;;;;;;;5095841;28;20272;-60
2021/03/16 10:23:32;;;;;;;2.53;1.60;;;;;;;;;;5095512;28;20692;-61
2021/03/16 10:25:59;;;;;;;4.32;1.55;;;;;;;;;;5095510;28;20257;-61
2021/03/16 10:28:33;;;;;;;7.05;2.00;;;;;;;;;;5095164;28;20204;-62
2021/03/16 10:31:10;;;;;;;2.10;1.35;;;;;;;;;;5095264;28;20207;-62
2021/03/16 10:33:38;;;;;;;2.75;1.50;;;;;;;;;;5095176;28;20315;-61
2021/03/16 10:36:05;;;;;;;2.50;1.60;;;;;;;;;;5094961;28;20265;-62
2021/03/16 10:38:31;;;;;;;2.60;2.00;;;;;;;;;;5095245;28;20208;-61
2021/03/16 10:40:58;;;;;;;5.15;2.45;;;;;;;;;;5095097;28;20214;-62
2021/03/16 10:43:25;;;;;;;6.82;2.13;;;;;;;;;;5095234;28;20201;-62
2021/03/16 10:45:54;;;;;;;3.45;2.15;;;;;;;;;;5095129;28;20617;-63
2021/03/16 10:48:20;;;;;;;4.30;1.93;;;;;;;;;;5094692;28;20566;-61
2021/03/16 10:50:48;;;;;;;3.60;2.25;;;;;;;;;;5094827;28;20469;-61
2021/03/16 10:53:15;;;;;;;3.25;2.53;;;;;;;;;;5094192;28;20200;-61
2021/03/16 10:55:42;;;;;;;3.88;1.60;;;;;;;;;;5094216;28;20617;-62
2021/03/16 10:58:09;;;;;;;4.25;2.13;;;;;;;;;;5094608;28;20196;-63
2021/03/16 11:00:36;;;;;;;3.70;2.03;;;;;;;;;;5094738;28;20707;-62
2021/03/16 11:03:03;;;;;;;3.35;1.65;;;;;;;;;;5094740;28;20211;-62
2021/03/16 11:05:29;;;;;;;5.80;1.90;;;;;;;;;;5094580;28;20216;-60
2021/03/16 11:07:57;;;;;;;3.20;1.60;;;;;;;;;;5094591;28;20205;-61
2021/03/16 11:10:24;;;;;;;6.07;1.88;;;;;;;;;;5094163;28;20745;-62
2021/03/16 11:12:51;;;;;;;3.08;1.95;;;;;;;;;;5094863;28;20200;-62
2021/03/16 11:15:17;;;;;;;6.32;1.70;;;;;;;;;;5094811;28;20216;-63
2021/03/16 11:17:44;;;;;;;5.00;2.20;;;;;;;;;;5094889;28;20621;-61
2021/03/16 11:20:12;;;;;;;10.80;2.00;;;;;;;;;;5100087;28;20200;-63
2021/03/16 11:22:38;;;;;;;5.80;2.00;;;;;;;;;;5098756;28;20936;-61
2021/03/16 11:25:07;;;;;;;4.55;1.60;;;;;;;;;;5094910;28;20224;-61
2021/03/16 11:27:34;;;;;;;2.58;1.60;;;;;;;;;;5095751;28;20226;-63
2021/03/16 11:30:01;;;;;;;6.97;1.83;;;;;;;;;;5094998;28;20197;-62
2021/03/16 11:32:28;;;;;;;4.57;2.05;;;;;;;;;;5094635;28;20207;-62
2021/03/16 11:34:54;;;;;;;5.25;1.90;;;;;;;;;;5096714;28;20227;-63
2021/03/16 11:37:21;;;;;;;4.68;2.05;;;;;;;;;;5095910;28;20200;-62
2021/03/16 11:39:48;;;;;;;4.43;2.30;;;;;;;;;;5094932;28;20207;-61
2021/03/16 11:42:16;;;;;;;4.38;2.30;;;;;;;;;;5094540;28;20625;-63
2021/03/16 11:44:43;;;;;;;4.57;1.97;;;;;;;;;;5094634;28;20489;-64
2021/03/16 11:47:10;;;;;;;5.70;2.28;;;;;;;;;;5093865;28;20474;-64
2021/03/16 11:49:37;;;;;;;4.63;2.10;;;;;;;;;;5094730;28;20226;-63
2021/03/16 11:52:04;;;;;;;4.25;2.15;;;;;;;;;;5094317;28;20208;-64
2021/03/16 11:54:31;;;;;;;4.60;2.40;;;;;;;;;;5095610;28;20478;-63
2021/03/16 11:56:57;;;;;;;9.88;2.85;;;;;;;;;;5095134;28;20443;-64
2021/03/16 11:59:25;;;;;;;4.78;2.53;;;;;;;;;;5095773;28;20211;-64
2021/03/16 12:01:52;;;;;;;7.90;2.72;;;;;;;;;;5094343;28;20542;-62
2021/03/16 12:04:18;;;;;;;4.55;2.45;;;;;;;;;;5095224;28;20242;-62
2021/03/16 12:06:46;;;;;;;5.88;2.70;;;;;;;;;;5094323;28;20235;-62
2021/03/16 12:09:13;;;;;;;6.38;2.80;;;;;;;;;;5095756;28;20200;-63
2021/03/16 12:11:40;;;;;;;4.95;2.40;;;;;;;;;;5095475;28;20445;-63
2021/03/16 12:14:06;;;;;;;7.13;2.85;;;;;;;;;;5100797;28;20284;-62
2021/03/16 12:16:34;;;;;;;7.80;2.60;;;;;;;;;;5106604;28;20229;-62
2021/03/16 12:19:01;;;;;;;6.93;2.70;;;;;;;;;;5094172;28;20204;-63
2021/03/16 12:21:27;;;;;;;6.22;2.75;;;;;;;;;;5093009;28;20268;-62
2021/03/16 12:23:54;;;;;;;8.32;2.90;;;;;;;;;;5091824;28;20444;-63
2021/03/16 12:26:21;;;;;;;7.97;2.63;;;;;;;;;;5093722;28;20227;-61
2021/03/16 12:28:48;;;;;;;7.78;2.60;;;;;;;;;;5096385;28;20237;-63
2021/03/16 12:31:15;;;;;;;5.93;2.63;;;;;;;;;;5097354;28;20236;-62
2021/03/16 12:33:43;;;;;;;5.55;2.95;;;;;;;;;;5097399;28;20262;-62
2021/03/16 12:36:10;;;;;;;8.40;3.40;;;;;;;;;;5097402;28;20207;-63
2021/03/16 12:38:37;;;;;;;6.10;2.50;;;;;;;;;;5097265;28;20605;-63
2021/03/16 12:41:04;;;;;;;8.80;2.55;;;;;;;;;;5096872;28;20261;-63
2021/03/16 12:43:30;;;;;;;3.67;2.42;;;;;;;;;;5096604;28;20224;-63
2021/03/16 12:45:57;;;;;;;6.95;2.17;;;;;;;;;;5097860;28;20249;-64
2021/03/16 12:48:24;;;;;;;5.57;2.47;;;;;;;;;;5097113;28;20637;-63
2021/03/16 12:50:51;;;;;;;5.80;2.30;;;;;;;;;;5097092;28;20227;-63
2021/03/16 12:53:18;;;;;;;6.30;2.42;;;;;;;;;;5096774;28;20226;-63
2021/03/16 12:55:45;;;;;;;5.13;2.65;;;;;;;;;;5096857;28;20201;-63
2021/03/16 12:58:12;;;;;;;6.60;2.60;;;;;;;;;;5097179;28;20207;-62
2021/03/16 13:00:38;;;;;;;8.85;3.35;;;;;;;;;;5096934;28;20204;-61
2021/03/16 13:03:06;;;;;;;9.00;2.95;;;;;;;;;;5096958;28;20620;-62
2021/03/16 13:05:33;;;;;;;5.75;2.53;;;;;;;;;;5096918;28;20672;-63
2021/03/16 13:08:01;;;;;;;10.55;3.33;;;;;;;;;;5097295;28;20213;-63
2021/03/16 13:10:28;;;;;;;9.05;3.60;;;;;;;;;;5097102;28;20250;-63
2021/03/16 13:12:54;;;;;;;9.52;3.65;;;;;;;;;;5097413;28;20204;-64
2021/03/16 13:15:21;;;;;;;8.93;2.72;;;;;;;;;;5096890;28;20224;-62
2021/03/16 13:17:48;;;;;;;6.63;3.03;;;;;;;;;;5096413;28;20201;-63
2021/03/16 13:20:15;;;;;;;4.38;2.30;;;;;;;;;;5096334;28;20201;-63
2021/03/16 13:22:42;;;;;;;7.95;3.25;;;;;;;;;;5096195;28;20200;-62
2021/03/16 13:25:10;;;;;;;6.95;2.63;;;;;;;;;;5095914;28;20234;-63
2021/03/16 13:27:37;;;;;;;11.50;2.92;;;;;;;;;;5095752;28;20315;-62
2021/03/16 13:30:04;;;;;;;10.55;2.95;;;;;;;;;;5096171;28;20207;-64
2021/03/16 13:32:31;;;;;;;8.50;2.28;;;;;;;;;;5096188;28;20227;-63
2021/03/16 13:34:58;;;;;;;5.30;3.40;;;;;;;;;;5096279;28;20642;-63
2021/03/16 13:37:25;;;;;;;9.07;2.08;;;;;;;;;;5096102;28;20196;-63
2021/03/16 13:39:52;;;;;;;8.25;2.50;;;;;;;;;;5095430;28;20197;-62
2021/03/16 13:42:20;;;;;;;9.00;2.25;;;;;;;;;;5096301;28;20216;-64
2021/03/16 13:44:46;;;;;;;3.55;2.30;;;;;;;;;;5096205;28;20228;-63
2021/03/16 13:47:13;;;;;;;8.07;2.10;;;;;;;;;;5095972;28;20243;-64
2021/03/16 13:49:40;;;;;;;12.18;2.30;;;;;;;;;;5095550;28;20598;-63
2021/03/16 13:52:06;;;;;;;4.22;2.38;;;;;;;;;;5095712;28;20200;-62
2021/03/16 13:54:33;;;;;;;4.97;1.90;;;;;;;;;;5095564;28;20292;-63
2021/03/16 13:57:00;;;;;;;5.45;2.10;;;;;;;;;;5096588;28;20196;-63
2021/03/16 13:59:28;;;;;;;4.18;2.20;;;;;;;;;;5095345;28;20287;-63
2021/03/16 14:01:54;;;;;;;3.67;1.92;;;;;;;;;;5095962;28;20207;-63
2021/03/16 14:04:21;;;;;;;4.88;2.17;;;;;;;;;;5097691;28;20225;-63
2021/03/16 14:06:48;;;;;;;7.10;2.35;;;;;;;;;;5096311;28;20224;-62
2021/03/16 14:09:15;;;;;;;5.88;1.63;;;;;;;;;;5096146;28;20348;-63
2021/03/16 14:11:41;;;;;;;9.40;2.05;;;;;;;;;;5095788;28;20204;-62
2021/03/16 14:14:08;;;;;;;5.70;2.10;;;;;;;;;;5096121;28;20223;-62
2021/03/16 14:16:36;;;;;;;4.63;1.75;;;;;;;;;;5096111;28;20207;-62
2021/03/16 14:19:03;;;;;;;7.72;2.13;;;;;;;;;;5095596;28;20687;-62
2021/03/16 14:21:30;;;;;;;8.35;2.50;;;;;;;;;;5096306;28;20196;-63
2021/03/16 14:23:57;;;;;;;8.82;3.28;;;;;;;;;;5096019;28;20217;-62
2021/03/16 14:26:24;;;;;;;6.82;2.13;;;;;;;;;;5096409;28;20211;-62
2021/03/16 14:28:50;;;;;;;5.95;2.38;;;;;;;;;;5096584;28;20204;-63
2021/03/16 14:31:17;;;;;;;7.28;2.67;;;;;;;;;;5102877;28;20579;-62
2021/03/16 14:33:45;;;;;;;5.80;2.03;;;;;;;;;;5103784;28;20224;-63
2021/03/16 14:36:12;;;;;;;5.65;1.88;;;;;;;;;;5098286;28;20204;-61
2021/03/16 14:38:39;;;;;;;6.05;2.00;;;;;;;;;;5096711;28;20227;-62
2021/03/16 14:41:06;;;;;;;7.18;2.10;;;;;;;;;;5094919;28;20566;-61